sensor_id;sensor_type;location;lat;lon;timestamp;temperature;humidity
48936;DHT22;34745;52.276;10.528;2023-07-29T00:01:22;19.60;99.90
48936;DHT22;34745;52.276;10.528;2023-07-29T00:03:50;19.50;99.90
48936;DHT22;34745;52.276;10.528;2023-07-29T00:06:17;19.50;99.90
48936;DHT22;34745;52.276;10.528;2023-07-29T00:08:44;19.50;99.90
48936;DHT22;34745;52.276;10.528;2023-07-29T00:11:11;19.50;99.90
48936;DHT22;34745;52.276;10.528;2023-07-29T00:13:38;19.50;99.90
48936;DHT22;34745;52.276;10.528;2023-07-29T00:16:05;19.50;99.90
48936;DHT22;34745;52.276;10.528;2023-07-29T00:18:33;19.40;99.90
48936;DHT22;34745;52.276;10.528;2023-07-29T00:21:01;19.40;99.90
48936;DHT22;34745;52.276;10.528;2023-07-29T00:23:29;19.40;99.90
48936;DHT22;34745;52.276;10.528;2023-07-29T00:25:56;19.40;99.90
48936;DHT22;34745;52.276;10.528;2023-07-29T00:28:23;19.40;99.90
48936;DHT22;34745;52.276;10.528;2023-07-29T00:30:50;19.30;99.90
48936;DHT22;34745;52.276;10.528;2023-07-29T00:33:17;19.40;99.90
48936;DHT22;34745;52.276;10.528;2023-07-29T00:35:45;19.40;99.90
48936;DHT22;34745;52.276;10.528;2023-07-29T00:38:14;19.40;99.90
48936;DHT22;34745;52.276;10.528;2023-07-29T00:40:42;19.40;99.90
48936;DHT22;34745;52.276;10.528;2023-07-29T00:43:09;19.40;99.90
48936;DHT22;34745;52.276;10.528;2023-07-29T00:45:37;19.50;99.90
48936;DHT22;34745;52.276;10.528;2023-07-29T00:48:05;19.60;99.90
48936;DHT22;34745;52.276;10.528;2023-07-29T00:50:32;19.60;99.90
48936;DHT22;34745;52.276;10.528;2023-07-29T00:53:00;19.60;99.90
48936;DHT22;34745;52.276;10.528;2023-07-29T00:55:28;19.60;99.90
48936;DHT22;34745;52.276;10.528;2023-07-29T00:57:56;19.70;99.90
48936;DHT22;34745;52.276;10.528;2023-07-29T01:00:23;19.70;99.90
48936;DHT22;34745;52.276;10.528;2023-07-29T01:02:52;19.70;99.90
48936;DHT22;34745;52.276;10.528;2023-07-29T01:05:22;19.70;99.90
48936;DHT22;34745;52.276;10.528;2023-07-29T01:07:56;19.70;99.90
48936;DHT22;34745;52.276;10.528;2023-07-29T01:10:36;19.70;99.90
48936;DHT22;34745;52.276;10.528;2023-07-29T01:13:09;19.60;99.90
48936;DHT22;34745;52.276;10.528;2023-07-29T01:15:43;19.60;99.90
48936;DHT22;34745;52.276;10.528;2023-07-29T01:18:17;19.60;99.90
48936;DHT22;34745;52.276;10.528;2023-07-29T01:20:46;19.50;99.90
48936;DHT22;34745;52.276;10.528;2023-07-29T01:23:16;19.50;99.90
48936;DHT22;34745;52.276;10.528;2023-07-29T01:25:44;19.50;99.90
48936;DHT22;34745;52.276;10.528;2023-07-29T01:28:11;19.50;99.90
48936;DHT22;34745;52.276;10.528;2023-07-29T01:30:40;19.50;99.90
48936;DHT22;34745;52.276;10.528;2023-07-29T01:33:14;19.40;99.90
48936;DHT22;34745;52.276;10.528;2023-07-29T01:35:46;19.40;99.90
48936;DHT22;34745;52.276;10.528;2023-07-29T01:38:16;19.40;99.90
48936;DHT22;34745;52.276;10.528;2023-07-29T01:40:47;19.30;99.90
48936;DHT22;34745;52.276;10.528;2023-07-29T01:43:16;19.30;99.90
48936;DHT22;34745;52.276;10.528;2023-07-29T01:45:45;19.30;99.90
48936;DHT22;34745;52.276;10.528;2023-07-29T01:48:13;19.30;99.90
48936;DHT22;34745;52.276;10.528;2023-07-29T01:50:40;19.30;99.90
48936;DHT22;34745;52.276;10.528;2023-07-29T01:53:07;19.20;99.90
48936;DHT22;34745;52.276;10.528;2023-07-29T01:55:34;19.20;99.90
48936;DHT22;34745;52.276;10.528;2023-07-29T01:58:03;19.20;99.90
48936;DHT22;34745;52.276;10.528;2023-07-29T02:00:30;19.20;99.90
48936;DHT22;34745;52.276;10.528;2023-07-29T02:02:57;19.10;99.90
48936;DHT22;34745;52.276;10.528;2023-07-29T02:05:24;19.10;99.90
48936;DHT22;34745;52.276;10.528;2023-07-29T02:07:51;19.10;99.90
48936;DHT22;34745;52.276;10.528;2023-07-29T02:10:19;19.10;99.90
48936;DHT22;34745;52.276;10.528;2023-07-29T02:12:46;19.00;99.90
48936;DHT22;34745;52.276;10.528;2023-07-29T02:15:14;19.00;99.90
48936;DHT22;34745;52.276;10.528;2023-07-29T02:17:42;19.00;99.90
48936;DHT22;34745;52.276;10.528;2023-07-29T02:20:10;19.00;99.90
48936;DHT22;34745;52.276;10.528;2023-07-29T02:22:38;19.00;99.90
48936;DHT22;34745;52.276;10.528;2023-07-29T02:25:05;19.00;99.90
48936;DHT22;34745;52.276;10.528;2023-07-29T02:27:32;19.00;99.90
48936;DHT22;34745;52.276;10.528;2023-07-29T02:30:00;19.00;99.90
48936;DHT22;34745;52.276;10.528;2023-07-29T02:32:29;19.00;99.90
48936;DHT22;34745;52.276;10.528;2023-07-29T02:34:56;19.00;99.90
48936;DHT22;34745;52.276;10.528;2023-07-29T02:37:23;18.90;99.90
48936;DHT22;34745;52.276;10.528;2023-07-29T02:39:50;18.80;99.90
48936;DHT22;34745;52.276;10.528;2023-07-29T02:42:18;18.80;99.90
48936;DHT22;34745;52.276;10.528;2023-07-29T02:44:44;18.80;99.90
48936;DHT22;34745;52.276;10.528;2023-07-29T02:47:12;18.80;99.90
48936;DHT22;34745;52.276;10.528;2023-07-29T02:49:40;18.70;99.90
48936;DHT22;34745;52.276;10.528;2023-07-29T02:52:07;18.70;99.90
48936;DHT22;34745;52.276;10.528;2023-07-29T02:54:34;18.70;99.90
48936;DHT22;34745;52.276;10.528;2023-07-29T02:57:02;18.60;99.90
48936;DHT22;34745;52.276;10.528;2023-07-29T02:59:29;18.60;99.90
48936;DHT22;34745;52.276;10.528;2023-07-29T03:01:56;18.60;99.90
48936;DHT22;34745;52.276;10.528;2023-07-29T03:04:23;18.70;99.90
48936;DHT22;34745;52.276;10.528;2023-07-29T03:06:51;18.70;99.90
48936;DHT22;34745;52.276;10.528;2023-07-29T03:09:18;18.60;99.90
48936;DHT22;34745;52.276;10.528;2023-07-29T03:11:46;18.60;99.90
48936;DHT22;34745;52.276;10.528;2023-07-29T03:14:13;18.60;99.90
48936;DHT22;34745;52.276;10.528;2023-07-29T03:16:40;18.60;99.90
48936;DHT22;34745;52.276;10.528;2023-07-29T03:19:07;18.70;99.90
48936;DHT22;34745;52.276;10.528;2023-07-29T03:21:34;18.70;99.90
48936;DHT22;34745;52.276;10.528;2023-07-29T03:24:03;18.70;99.90
48936;DHT22;34745;52.276;10.528;2023-07-29T03:26:30;18.70;99.90
48936;DHT22;34745;52.276;10.528;2023-07-29T03:28:57;18.70;99.90
48936;DHT22;34745;52.276;10.528;2023-07-29T03:31:24;18.70;99.90
48936;DHT22;34745;52.276;10.528;2023-07-29T03:33:51;18.70;99.90
48936;DHT22;34745;52.276;10.528;2023-07-29T03:36:18;18.70;99.90
48936;DHT22;34745;52.276;10.528;2023-07-29T03:38:46;18.80;99.90
48936;DHT22;34745;52.276;10.528;2023-07-29T03:41:15;18.70;99.90
48936;DHT22;34745;52.276;10.528;2023-07-29T03:43:42;18.70;99.90
48936;DHT22;34745;52.276;10.528;2023-07-29T03:46:09;18.80;99.90
48936;DHT22;34745;52.276;10.528;2023-07-29T03:48:38;18.70;99.90
48936;DHT22;34745;52.276;10.528;2023-07-29T03:51:05;18.80;99.90
48936;DHT22;34745;52.276;10.528;2023-07-29T03:53:32;18.80;99.90
48936;DHT22;34745;52.276;10.528;2023-07-29T03:55:59;18.90;99.90
48936;DHT22;34745;52.276;10.528;2023-07-29T03:58:28;18.90;99.90
48936;DHT22;34745;52.276;10.528;2023-07-29T04:00:55;18.90;99.90
48936;DHT22;34745;52.276;10.528;2023-07-29T04:03:22;19.00;99.90
48936;DHT22;34745;52.276;10.528;2023-07-29T04:05:49;19.00;99.90
48936;DHT22;34745;52.276;10.528;2023-07-29T04:08:16;19.00;99.90
48936;DHT22;34745;52.276;10.528;2023-07-29T04:10:43;19.00;99.90
48936;DHT22;34745;52.276;10.528;2023-07-29T04:13:11;19.00;99.90
48936;DHT22;34745;52.276;10.528;2023-07-29T04:15:39;19.00;99.90
48936;DHT22;34745;52.276;10.528;2023-07-29T04:18:06;19.00;99.90
48936;DHT22;34745;52.276;10.528;2023-07-29T04:20:33;19.10;99.90
48936;DHT22;34745;52.276;10.528;2023-07-29T04:23:00;19.10;99.90
48936;DHT22;34745;52.276;10.528;2023-07-29T04:25:28;19.10;99.90
48936;DHT22;34745;52.276;10.528;2023-07-29T04:27:55;19.10;99.90
48936;DHT22;34745;52.276;10.528;2023-07-29T04:30:24;19.10;99.90
48936;DHT22;34745;52.276;10.528;2023-07-29T04:32:53;19.10;99.90
48936;DHT22;34745;52.276;10.528;2023-07-29T04:35:20;19.20;99.90
48936;DHT22;34745;52.276;10.528;2023-07-29T04:37:48;19.10;99.90
48936;DHT22;34745;52.276;10.528;2023-07-29T04:40:15;19.20;99.90
48936;DHT22;34745;52.276;10.528;2023-07-29T04:42:42;19.30;99.90
48936;DHT22;34745;52.276;10.528;2023-07-29T04:45:10;19.20;99.90
48936;DHT22;34745;52.276;10.528;2023-07-29T04:47:37;19.30;99.90
48936;DHT22;34745;52.276;10.528;2023-07-29T04:50:07;19.40;99.90
48936;DHT22;34745;52.276;10.528;2023-07-29T04:52:34;19.40;99.90
48936;DHT22;34745;52.276;10.528;2023-07-29T04:55:02;19.50;99.90
48936;DHT22;34745;52.276;10.528;2023-07-29T04:57:29;19.40;99.90
48936;DHT22;34745;52.276;10.528;2023-07-29T04:59:56;19.40;99.90
48936;DHT22;34745;52.276;10.528;2023-07-29T05:02:23;19.50;99.90
48936;DHT22;34745;52.276;10.528;2023-07-29T05:04:50;19.60;99.90
48936;DHT22;34745;52.276;10.528;2023-07-29T05:07:19;19.50;99.90
48936;DHT22;34745;52.276;10.528;2023-07-29T05:09:47;19.50;99.90
48936;DHT22;34745;52.276;10.528;2023-07-29T05:12:14;19.50;99.90
48936;DHT22;34745;52.276;10.528;2023-07-29T05:14:41;19.60;99.90
48936;DHT22;34745;52.276;10.528;2023-07-29T05:17:08;19.60;99.90
48936;DHT22;34745;52.276;10.528;2023-07-29T05:19:35;19.70;99.90
48936;DHT22;34745;52.276;10.528;2023-07-29T05:22:02;19.70;99.90
48936;DHT22;34745;52.276;10.528;2023-07-29T05:24:32;19.70;99.90
48936;DHT22;34745;52.276;10.528;2023-07-29T05:26:59;19.70;99.90
48936;DHT22;34745;52.276;10.528;2023-07-29T05:29:26;19.80;99.90
48936;DHT22;34745;52.276;10.528;2023-07-29T05:31:53;19.80;99.90
48936;DHT22;34745;52.276;10.528;2023-07-29T05:34:21;19.80;99.90
48936;DHT22;34745;52.276;10.528;2023-07-29T05:36:47;19.80;99.90
48936;DHT22;34745;52.276;10.528;2023-07-29T05:39:15;19.80;99.90
48936;DHT22;34745;52.276;10.528;2023-07-29T05:41:43;19.80;99.90
48936;DHT22;34745;52.276;10.528;2023-07-29T05:44:11;19.90;99.90
48936;DHT22;34745;52.276;10.528;2023-07-29T05:46:37;19.90;99.90
48936;DHT22;34745;52.276;10.528;2023-07-29T05:49:05;20.00;99.90
48936;DHT22;34745;52.276;10.528;2023-07-29T05:51:32;20.00;99.90
48936;DHT22;34745;52.276;10.528;2023-07-29T05:54:00;20.00;99.90
48936;DHT22;34745;52.276;10.528;2023-07-29T05:56:27;20.00;99.90
48936;DHT22;34745;52.276;10.528;2023-07-29T05:58:55;20.00;99.90
48936;DHT22;34745;52.276;10.528;2023-07-29T06:01:22;19.90;99.90
48936;DHT22;34745;52.276;10.528;2023-07-29T06:03:50;19.90;99.90
48936;DHT22;34745;52.276;10.528;2023-07-29T06:06:17;19.90;99.90
48936;DHT22;34745;52.276;10.528;2023-07-29T06:08:44;19.90;99.90
48936;DHT22;34745;52.276;10.528;2023-07-29T06:11:11;19.80;99.90
48936;DHT22;34745;52.276;10.528;2023-07-29T06:13:38;19.80;99.90
48936;DHT22;34745;52.276;10.528;2023-07-29T06:16:07;19.80;99.90
48936;DHT22;34745;52.276;10.528;2023-07-29T06:18:34;19.80;99.90
48936;DHT22;34745;52.276;10.528;2023-07-29T06:21:01;19.80;99.90
48936;DHT22;34745;52.276;10.528;2023-07-29T06:23:28;19.80;99.90
48936;DHT22;34745;52.276;10.528;2023-07-29T06:25:55;19.70;99.90
48936;DHT22;34745;52.276;10.528;2023-07-29T06:28:22;19.60;99.90
48936;DHT22;34745;52.276;10.528;2023-07-29T06:30:49;19.50;99.90
48936;DHT22;34745;52.276;10.528;2023-07-29T06:33:18;19.40;99.90
48936;DHT22;34745;52.276;10.528;2023-07-29T06:35:45;19.40;99.90
48936;DHT22;34745;52.276;10.528;2023-07-29T06:38:12;19.30;99.90
48936;DHT22;34745;52.276;10.528;2023-07-29T06:40:39;19.30;99.90
48936;DHT22;34745;52.276;10.528;2023-07-29T06:43:06;19.30;99.90
48936;DHT22;34745;52.276;10.528;2023-07-29T06:45:33;19.30;99.90
48936;DHT22;34745;52.276;10.528;2023-07-29T06:48:01;19.40;99.90
48936;DHT22;34745;52.276;10.528;2023-07-29T06:50:29;19.40;99.90
48936;DHT22;34745;52.276;10.528;2023-07-29T06:52:56;19.40;99.90
48936;DHT22;34745;52.276;10.528;2023-07-29T06:55:23;19.40;99.90
48936;DHT22;34745;52.276;10.528;2023-07-29T06:57:50;19.40;99.90
48936;DHT22;34745;52.276;10.528;2023-07-29T07:00:18;19.40;99.90
48936;DHT22;34745;52.276;10.528;2023-07-29T07:02:45;19.40;99.90
48936;DHT22;34745;52.276;10.528;2023-07-29T07:05:12;19.40;99.90
48936;DHT22;34745;52.276;10.528;2023-07-29T07:07:40;19.40;99.90
48936;DHT22;34745;52.276;10.528;2023-07-29T07:10:08;19.40;99.90
48936;DHT22;34745;52.276;10.528;2023-07-29T07:12:35;19.40;99.90
48936;DHT22;34745;52.276;10.528;2023-07-29T07:15:03;19.40;99.90
48936;DHT22;34745;52.276;10.528;2023-07-29T07:17:30;19.30;99.90
48936;DHT22;34745;52.276;10.528;2023-07-29T07:19:58;19.30;99.90
48936;DHT22;34745;52.276;10.528;2023-07-29T07:22:26;19.30;99.90
48936;DHT22;34745;52.276;10.528;2023-07-29T07:24:54;19.30;99.90
48936;DHT22;34745;52.276;10.528;2023-07-29T07:27:21;19.10;99.90
48936;DHT22;34745;52.276;10.528;2023-07-29T07:29:48;19.10;99.90
48936;DHT22;34745;52.276;10.528;2023-07-29T07:32:15;19.00;99.90
48936;DHT22;34745;52.276;10.528;2023-07-29T07:34:42;18.90;99.90
48936;DHT22;34745;52.276;10.528;2023-07-29T07:37:09;19.00;99.90
48936;DHT22;34745;52.276;10.528;2023-07-29T07:39:36;19.00;99.90
48936;DHT22;34745;52.276;10.528;2023-07-29T07:42:06;19.10;99.90
48936;DHT22;34745;52.276;10.528;2023-07-29T07:44:32;19.10;99.90
48936;DHT22;34745;52.276;10.528;2023-07-29T07:47:00;19.10;99.90
48936;DHT22;34745;52.276;10.528;2023-07-29T07:49:31;19.10;99.90
48936;DHT22;34745;52.276;10.528;2023-07-29T07:51:58;19.20;99.90
48936;DHT22;34745;52.276;10.528;2023-07-29T07:54:25;19.20;99.90
48936;DHT22;34745;52.276;10.528;2023-07-29T07:56:52;19.20;99.90
48936;DHT22;34745;52.276;10.528;2023-07-29T07:59:20;19.30;99.90
48936;DHT22;34745;52.276;10.528;2023-07-29T08:01:47;19.30;99.90
48936;DHT22;34745;52.276;10.528;2023-07-29T08:04:14;19.40;99.90
48936;DHT22;34745;52.276;10.528;2023-07-29T08:06:42;19.50;99.90
48936;DHT22;34745;52.276;10.528;2023-07-29T08:09:09;19.50;99.90
48936;DHT22;34745;52.276;10.528;2023-07-29T08:11:36;19.70;99.90
48936;DHT22;34745;52.276;10.528;2023-07-29T08:14:03;19.80;99.90
48936;DHT22;34745;52.276;10.528;2023-07-29T08:16:31;19.90;99.90
48936;DHT22;34745;52.276;10.528;2023-07-29T08:18:58;20.00;99.90
48936;DHT22;34745;52.276;10.528;2023-07-29T08:21:26;20.10;99.90
48936;DHT22;34745;52.276;10.528;2023-07-29T08:23:53;20.10;99.90
48936;DHT22;34745;52.276;10.528;2023-07-29T08:26:21;20.30;99.90
48936;DHT22;34745;52.276;10.528;2023-07-29T08:28:48;20.30;99.90
48936;DHT22;34745;52.276;10.528;2023-07-29T08:31:20;20.30;99.90
48936;DHT22;34745;52.276;10.528;2023-07-29T08:33:48;20.20;99.90
48936;DHT22;34745;52.276;10.528;2023-07-29T08:36:16;20.40;99.90
48936;DHT22;34745;52.276;10.528;2023-07-29T08:38:43;20.40;99.90
48936;DHT22;34745;52.276;10.528;2023-07-29T08:41:14;20.60;99.90
48936;DHT22;34745;52.276;10.528;2023-07-29T08:43:46;20.60;99.90
48936;DHT22;34745;52.276;10.528;2023-07-29T08:46:16;20.80;99.90
48936;DHT22;34745;52.276;10.528;2023-07-29T08:48:43;20.80;99.90
48936;DHT22;34745;52.276;10.528;2023-07-29T08:51:12;20.80;99.90
48936;DHT22;34745;52.276;10.528;2023-07-29T08:53:39;20.70;99.90
48936;DHT22;34745;52.276;10.528;2023-07-29T08:56:07;20.80;99.90
48936;DHT22;34745;52.276;10.528;2023-07-29T08:58:35;20.70;99.90
48936;DHT22;34745;52.276;10.528;2023-07-29T09:01:02;20.70;99.90
48936;DHT22;34745;52.276;10.528;2023-07-29T09:03:29;20.80;99.90
48936;DHT22;34745;52.276;10.528;2023-07-29T09:05:57;20.80;99.90
48936;DHT22;34745;52.276;10.528;2023-07-29T09:08:27;20.90;99.90
48936;DHT22;34745;52.276;10.528;2023-07-29T09:10:54;20.80;99.90
48936;DHT22;34745;52.276;10.528;2023-07-29T09:13:22;20.90;99.90
48936;DHT22;34745;52.276;10.528;2023-07-29T09:15:49;20.60;99.90
48936;DHT22;34745;52.276;10.528;2023-07-29T09:18:21;20.80;99.90
48936;DHT22;34745;52.276;10.528;2023-07-29T09:20:49;20.60;99.90
48936;DHT22;34745;52.276;10.528;2023-07-29T09:23:17;20.60;99.90
48936;DHT22;34745;52.276;10.528;2023-07-29T09:25:46;20.60;99.90
48936;DHT22;34745;52.276;10.528;2023-07-29T09:28:15;20.60;99.90
48936;DHT22;34745;52.276;10.528;2023-07-29T09:30:45;20.60;99.90
48936;DHT22;34745;52.276;10.528;2023-07-29T09:33:13;20.60;99.90
48936;DHT22;34745;52.276;10.528;2023-07-29T09:35:42;20.70;99.90
48936;DHT22;34745;52.276;10.528;2023-07-29T09:38:14;20.80;99.90
48936;DHT22;34745;52.276;10.528;2023-07-29T09:40:42;20.80;99.90
48936;DHT22;34745;52.276;10.528;2023-07-29T09:43:17;20.80;99.90
48936;DHT22;34745;52.276;10.528;2023-07-29T09:45:46;20.80;99.90
48936;DHT22;34745;52.276;10.528;2023-07-29T09:48:13;20.90;99.90
48936;DHT22;34745;52.276;10.528;2023-07-29T09:50:40;20.90;99.90
48936;DHT22;34745;52.276;10.528;2023-07-29T09:53:08;21.00;99.90
48936;DHT22;34745;52.276;10.528;2023-07-29T09:55:35;21.00;99.90
48936;DHT22;34745;52.276;10.528;2023-07-29T09:58:02;21.10;99.90
48936;DHT22;34745;52.276;10.528;2023-07-29T10:00:32;21.10;99.90
48936;DHT22;34745;52.276;10.528;2023-07-29T10:03:00;21.00;99.90
48936;DHT22;34745;52.276;10.528;2023-07-29T10:05:28;21.00;99.90
48936;DHT22;34745;52.276;10.528;2023-07-29T10:07:56;20.90;99.90
48936;DHT22;34745;52.276;10.528;2023-07-29T10:10:24;21.00;99.90
48936;DHT22;34745;52.276;10.528;2023-07-29T10:12:52;21.00;99.90
48936;DHT22;34745;52.276;10.528;2023-07-29T10:15:21;21.20;99.90
48936;DHT22;34745;52.276;10.528;2023-07-29T10:17:50;21.30;99.90
48936;DHT22;34745;52.276;10.528;2023-07-29T10:20:18;21.40;99.90
48936;DHT22;34745;52.276;10.528;2023-07-29T10:22:47;21.60;99.90
48936;DHT22;34745;52.276;10.528;2023-07-29T10:25:17;21.70;74.90
48936;DHT22;34745;52.276;10.528;2023-07-29T10:27:48;21.80;66.10
48936;DHT22;34745;52.276;10.528;2023-07-29T10:30:19;21.90;63.20
48936;DHT22;34745;52.276;10.528;2023-07-29T10:32:47;22.10;59.20
48936;DHT22;34745;52.276;10.528;2023-07-29T10:35:16;22.30;42.50
48936;DHT22;34745;52.276;10.528;2023-07-29T10:37:44;22.30;41.40
48936;DHT22;34745;52.276;10.528;2023-07-29T10:40:12;22.30;43.00
48936;DHT22;34745;52.276;10.528;2023-07-29T10:42:59;22.30;46.00
48936;DHT22;34745;52.276;10.528;2023-07-29T10:45:36;22.10;61.60
48936;DHT22;34745;52.276;10.528;2023-07-29T10:48:06;22.10;40.70
48936;DHT22;34745;52.276;10.528;2023-07-29T10:50:35;22.20;43.30
48936;DHT22;34745;52.276;10.528;2023-07-29T10:53:05;22.30;40.30
48936;DHT22;34745;52.276;10.528;2023-07-29T10:55:33;22.20;31.00
48936;DHT22;34745;52.276;10.528;2023-07-29T10:58:09;22.20;28.20
48936;DHT22;34745;52.276;10.528;2023-07-29T11:00:38;22.20;14.60
48936;DHT22;34745;52.276;10.528;2023-07-29T11:03:06;22.30;6.20
48936;DHT22;34745;52.276;10.528;2023-07-29T11:05:44;22.40;1.00
48936;DHT22;34745;52.276;10.528;2023-07-29T11:08:23;22.50;1.00
48936;DHT22;34745;52.276;10.528;2023-07-29T11:10:58;22.50;1.00
48936;DHT22;34745;52.276;10.528;2023-07-29T11:13:27;22.40;1.00
48936;DHT22;34745;52.276;10.528;2023-07-29T11:15:55;22.30;1.00
48936;DHT22;34745;52.276;10.528;2023-07-29T11:18:26;22.30;1.00
48936;DHT22;34745;52.276;10.528;2023-07-29T11:20:56;22.20;1.00
48936;DHT22;34745;52.276;10.528;2023-07-29T11:23:28;22.30;1.00
48936;DHT22;34745;52.276;10.528;2023-07-29T11:25:56;22.30;1.00
48936;DHT22;34745;52.276;10.528;2023-07-29T11:28:25;22.30;1.00
48936;DHT22;34745;52.276;10.528;2023-07-29T11:30:54;22.30;1.00
48936;DHT22;34745;52.276;10.528;2023-07-29T11:33:23;22.20;1.00
48936;DHT22;34745;52.276;10.528;2023-07-29T11:35:51;22.20;1.00
48936;DHT22;34745;52.276;10.528;2023-07-29T11:38:20;22.20;1.00
48936;DHT22;34745;52.276;10.528;2023-07-29T11:40:56;22.20;1.00
48936;DHT22;34745;52.276;10.528;2023-07-29T11:43:23;22.10;1.00
48936;DHT22;34745;52.276;10.528;2023-07-29T11:45:51;22.00;1.00
48936;DHT22;34745;52.276;10.528;2023-07-29T11:48:18;22.10;1.00
48936;DHT22;34745;52.276;10.528;2023-07-29T11:50:45;22.30;1.00
48936;DHT22;34745;52.276;10.528;2023-07-29T11:53:13;22.40;1.00
48936;DHT22;34745;52.276;10.528;2023-07-29T11:55:44;22.40;1.00
48936;DHT22;34745;52.276;10.528;2023-07-29T11:58:11;22.60;1.00
48936;DHT22;34745;52.276;10.528;2023-07-29T12:00:39;23.00;1.00
48936;DHT22;34745;52.276;10.528;2023-07-29T12:03:06;23.20;1.00
48936;DHT22;34745;52.276;10.528;2023-07-29T12:05:35;23.50;1.00
48936;DHT22;34745;52.276;10.528;2023-07-29T12:08:03;23.70;1.00
48936;DHT22;34745;52.276;10.528;2023-07-29T12:10:30;23.90;1.00
48936;DHT22;34745;52.276;10.528;2023-07-29T12:12:58;24.10;1.00
48936;DHT22;34745;52.276;10.528;2023-07-29T12:15:27;24.10;1.00
48936;DHT22;34745;52.276;10.528;2023-07-29T12:17:55;23.80;1.00
48936;DHT22;34745;52.276;10.528;2023-07-29T12:20:24;23.60;1.00
48936;DHT22;34745;52.276;10.528;2023-07-29T12:22:52;23.60;1.00
48936;DHT22;34745;52.276;10.528;2023-07-29T12:25:20;23.50;1.00
48936;DHT22;34745;52.276;10.528;2023-07-29T12:27:47;23.60;1.00
48936;DHT22;34745;52.276;10.528;2023-07-29T12:30:15;23.90;1.00
48936;DHT22;34745;52.276;10.528;2023-07-29T12:32:44;24.10;1.00
48936;DHT22;34745;52.276;10.528;2023-07-29T12:35:11;24.30;1.00
48936;DHT22;34745;52.276;10.528;2023-07-29T12:37:38;24.50;1.00
48936;DHT22;34745;52.276;10.528;2023-07-29T12:40:21;24.40;1.00
48936;DHT22;34745;52.276;10.528;2023-07-29T12:42:49;24.40;1.00
48936;DHT22;34745;52.276;10.528;2023-07-29T12:45:18;24.60;1.00
48936;DHT22;34745;52.276;10.528;2023-07-29T12:47:46;24.80;1.00
48936;DHT22;34745;52.276;10.528;2023-07-29T12:50:13;25.00;1.00
48936;DHT22;34745;52.276;10.528;2023-07-29T12:52:40;25.40;1.00
48936;DHT22;34745;52.276;10.528;2023-07-29T12:55:08;25.90;1.00
48936;DHT22;34745;52.276;10.528;2023-07-29T12:57:35;25.80;1.00
48936;DHT22;34745;52.276;10.528;2023-07-29T13:00:03;25.20;1.00
48936;DHT22;34745;52.276;10.528;2023-07-29T13:02:32;25.30;1.00
48936;DHT22;34745;52.276;10.528;2023-07-29T13:05:00;25.60;1.00
48936;DHT22;34745;52.276;10.528;2023-07-29T13:07:27;25.90;1.00
48936;DHT22;34745;52.276;10.528;2023-07-29T13:09:54;26.20;1.00
48936;DHT22;34745;52.276;10.528;2023-07-29T13:12:21;26.20;1.00
48936;DHT22;34745;52.276;10.528;2023-07-29T13:14:48;25.90;1.00
48936;DHT22;34745;52.276;10.528;2023-07-29T13:17:15;26.10;1.00
48936;DHT22;34745;52.276;10.528;2023-07-29T13:19:43;26.30;1.00
48936;DHT22;34745;52.276;10.528;2023-07-29T13:22:10;26.60;1.00
48936;DHT22;34745;52.276;10.528;2023-07-29T13:24:37;26.80;99.90
48936;DHT22;34745;52.276;10.528;2023-07-29T13:27:05;26.90;99.90
48936;DHT22;34745;52.276;10.528;2023-07-29T13:29:32;27.10;99.90
48936;DHT22;34745;52.276;10.528;2023-07-29T13:31:59;27.90;99.90
48936;DHT22;34745;52.276;10.528;2023-07-29T13:34:26;27.50;99.90
48936;DHT22;34745;52.276;10.528;2023-07-29T13:36:55;27.20;99.90
48936;DHT22;34745;52.276;10.528;2023-07-29T13:39:22;27.40;99.90
48936;DHT22;34745;52.276;10.528;2023-07-29T13:41:49;27.40;99.90
48936;DHT22;34745;52.276;10.528;2023-07-29T13:44:16;27.30;99.90
48936;DHT22;34745;52.276;10.528;2023-07-29T13:46:43;26.80;99.90
48936;DHT22;34745;52.276;10.528;2023-07-29T13:49:11;26.10;99.90
48936;DHT22;34745;52.276;10.528;2023-07-29T13:51:38;26.30;99.90
48936;DHT22;34745;52.276;10.528;2023-07-29T13:54:07;26.70;99.90
48936;DHT22;34745;52.276;10.528;2023-07-29T13:56:34;27.20;99.90
48936;DHT22;34745;52.276;10.528;2023-07-29T13:59:01;27.60;99.90
48936;DHT22;34745;52.276;10.528;2023-07-29T14:01:28;27.90;99.90
48936;DHT22;34745;52.276;10.528;2023-07-29T14:03:55;28.00;99.90
48936;DHT22;34745;52.276;10.528;2023-07-29T14:06:23;28.00;99.90
48936;DHT22;34745;52.276;10.528;2023-07-29T14:09:11;28.40;99.90
48936;DHT22;34745;52.276;10.528;2023-07-29T14:11:38;28.60;99.90
48936;DHT22;34745;52.276;10.528;2023-07-29T14:14:06;28.30;99.90
48936;DHT22;34745;52.276;10.528;2023-07-29T14:16:33;28.40;99.90
48936;DHT22;34745;52.276;10.528;2023-07-29T14:19:01;28.50;99.90
48936;DHT22;34745;52.276;10.528;2023-07-29T14:21:28;28.70;99.90
48936;DHT22;34745;52.276;10.528;2023-07-29T14:23:55;28.60;99.90
48936;DHT22;34745;52.276;10.528;2023-07-29T14:26:24;28.30;99.90
48936;DHT22;34745;52.276;10.528;2023-07-29T14:28:51;28.00;99.90
48936;DHT22;34745;52.276;10.528;2023-07-29T14:31:18;28.00;99.90
48936;DHT22;34745;52.276;10.528;2023-07-29T14:33:45;28.30;99.90
48936;DHT22;34745;52.276;10.528;2023-07-29T14:36:12;28.50;99.90
48936;DHT22;34745;52.276;10.528;2023-07-29T14:38:40;28.80;99.90
48936;DHT22;34745;52.276;10.528;2023-07-29T14:41:07;29.00;99.90
48936;DHT22;34745;52.276;10.528;2023-07-29T14:43:35;28.90;99.90
48936;DHT22;34745;52.276;10.528;2023-07-29T14:46:02;28.80;99.90
48936;DHT22;34745;52.276;10.528;2023-07-29T14:48:30;28.70;99.90
48936;DHT22;34745;52.276;10.528;2023-07-29T14:50:57;28.60;99.90
48936;DHT22;34745;52.276;10.528;2023-07-29T14:53:24;28.70;99.90
48936;DHT22;34745;52.276;10.528;2023-07-29T14:55:52;28.70;99.90
48936;DHT22;34745;52.276;10.528;2023-07-29T14:58:19;29.00;99.90
48936;DHT22;34745;52.276;10.528;2023-07-29T15:00:48;29.10;99.90
48936;DHT22;34745;52.276;10.528;2023-07-29T15:03:15;29.10;99.90
48936;DHT22;34745;52.276;10.528;2023-07-29T15:05:42;29.20;99.90
48936;DHT22;34745;52.276;10.528;2023-07-29T15:08:10;29.10;99.90
48936;DHT22;34745;52.276;10.528;2023-07-29T15:10:36;28.80;99.90
48936;DHT22;34745;52.276;10.528;2023-07-29T15:13:04;29.00;99.90
48936;DHT22;34745;52.276;10.528;2023-07-29T15:15:31;28.80;99.90
48936;DHT22;34745;52.276;10.528;2023-07-29T15:17:59;28.50;99.90
48936;DHT22;34745;52.276;10.528;2023-07-29T15:20:26;28.60;99.90
48936;DHT22;34745;52.276;10.528;2023-07-29T15:22:54;29.00;99.90